Time;durP1;ratioP1;P1;durP2;ratioP2;P2;SDS_P1;SDS_P2;PMS_P1;PMS_P2;Temp;Humidity;BMP_temperature;BMP_pressure;BME280_temperature;BME280_humidity;BME280_pressure;Samples;Min_cycle;Max_cycle;Signal;HPM_P1;HPM_P2
2021/12/06 00:01:37;;;;;;;22.42;12.63;;;;;;;3.81;76.74;100294.81;5039548;28;20052;-48
2021/12/06 00:04:13;;;;;;;18.90;12.07;;;;;;;3.81;76.24;100291.34;5045051;28;20124;-53
2021/12/06 00:06:44;;;;;;;21.38;12.65;;;;;;;3.81;76.34;100301.78;5040048;28;20025;-47
2021/12/06 00:09:15;;;;;;;21.65;11.38;;;;;;;3.79;76.27;100300.88;5043819;28;20500;-48
2021/12/06 00:11:41;;;;;;;22.15;12.05;;;;;;;3.80;76.45;100300.06;5040119;28;20125;-48
2021/12/06 00:14:07;;;;;;;21.60;12.05;;;;;;;3.81;76.37;100312.22;5041031;28;20040;-50
2021/12/06 00:16:32;;;;;;;20.70;13.13;;;;;;;3.81;76.67;100307.88;5041261;28;20037;-48
2021/12/06 00:18:58;;;;;;;21.92;12.70;;;;;;;3.82;76.43;100316.59;5042073;28;20105;-50
2021/12/06 00:21:23;;;;;;;20.48;12.70;;;;;;;3.82;76.57;100319.19;5040374;28;20152;-50
2021/12/06 00:23:49;;;;;;;16.98;11.18;;;;;;;3.83;76.51;100320.94;5040627;28;20182;-49
2021/12/06 00:26:14;;;;;;;20.80;11.35;;;;;;;3.80;76.61;100310.47;5037498;28;20091;-50
2021/12/06 00:28:42;;;;;;;21.42;11.93;;;;;;;3.83;76.34;100320.94;5038215;28;20459;-50
2021/12/06 00:31:08;;;;;;;21.75;12.68;;;;;;;3.81;76.53;100318.31;5026299;28;20017;-50
2021/12/06 00:33:33;;;;;;;19.98;11.93;;;;;;;3.82;76.47;100321.81;5023599;28;20120;-50
2021/12/06 00:36:04;;;;;;;18.67;11.73;;;;;;;3.81;76.42;100322.66;5023092;28;20026;-49
2021/12/06 00:38:31;;;;;;;17.92;10.93;;;;;;;3.82;76.42;100324.41;5045173;28;20029;-50
2021/12/06 00:40:57;;;;;;;21.27;12.13;;;;;;;3.82;76.81;100329.63;5041293;28;20104;-50
2021/12/06 00:43:22;;;;;;;21.30;12.07;;;;;;;3.82;76.30;100332.22;5035923;28;20033;-49
2021/12/06 00:45:48;;;;;;;20.67;12.45;;;;;;;3.81;76.50;100339.16;5039873;28;20029;-47
2021/12/06 00:48:13;;;;;;;18.58;11.52;;;;;;;3.82;76.43;100340.94;5040966;28;20115;-49
2021/12/06 00:50:41;;;;;;;18.85;10.80;;;;;;;3.80;76.52;100333.97;5037873;28;20017;-49
2021/12/06 00:53:07;;;;;;;20.05;11.63;;;;;;;3.81;76.84;100335.72;5039948;28;20037;-50
2021/12/06 00:55:33;;;;;;;18.77;11.93;;;;;;;3.81;77.01;100343.53;5037749;28;20117;-48
2021/12/06 00:57:58;;;;;;;19.50;12.25;;;;;;;3.82;76.67;100348.78;5027435;28;20025;-49
2021/12/06 01:00:35;;;;;;;20.17;12.75;;;;;;;3.82;76.76;100355.72;5041459;28;20032;-48
2021/12/06 01:03:02;;;;;;;20.00;12.63;;;;;;;3.81;76.23;100361.78;5042923;28;20362;-47
2021/12/06 01:05:28;;;;;;;18.70;11.88;;;;;;;3.81;76.73;100351.38;5041217;28;20020;-49
2021/12/06 01:07:56;;;;;;;18.00;11.55;;;;;;;3.81;76.55;100356.59;5041444;28;20021;-48
2021/12/06 01:10:25;;;;;;;21.20;12.27;;;;;;;3.77;76.45;100344.34;5047399;28;20079;-51
2021/12/06 01:12:51;;;;;;;19.05;12.60;;;;;;;3.80;76.36;100357.44;5047668;28;20182;-47
2021/12/06 01:15:17;;;;;;;20.20;12.70;;;;;;;3.80;76.16;100360.06;5026575;28;20592;-49
2021/12/06 01:17:44;;;;;;;22.00;13.18;;;;;;;3.79;76.64;100366.09;5048113;28;20473;-50
2021/12/06 01:20:11;;;;;;;21.35;12.85;;;;;;;3.81;76.27;100369.63;5044789;28;20162;-50
2021/12/06 01:22:49;;;;;;;19.95;13.07;;;;;;;3.79;76.44;100373.94;5012236;28;20024;-50
2021/12/06 01:25:27;;;;;;;19.88;12.68;;;;;;;3.78;76.68;100366.97;5025607;28;20028;-49
2021/12/06 01:41:12;;;;;;;21.52;12.57;;;;;;;3.79;76.45;100397.41;5045559;28;20401;-49
2021/12/06 01:44:02;;;;;;;23.10;12.32;;;;;;;3.80;76.67;100400.03;5039802;28;20060;-53
2021/12/06 01:46:27;;;;;;;22.15;13.68;;;;;;;3.79;76.07;100400.03;5041370;28;20017;-49
2021/12/06 01:48:52;;;;;;;23.52;14.13;;;;;;;3.78;76.18;100403.50;5043145;28;20060;-48
2021/12/06 01:51:18;;;;;;;19.35;12.85;;;;;;;3.78;76.22;100412.22;5026815;28;20029;-49
2021/12/06 01:53:43;;;;;;;25.23;14.48;;;;;;;3.78;76.59;100413.94;5044257;28;20578;-50
2021/12/06 01:56:08;;;;;;;26.20;16.02;;;;;;;3.78;76.20;100416.53;5044972;28;20025;-50
2021/12/06 01:58:34;;;;;;;25.95;14.48;;;;;;;3.78;76.70;100411.31;5022295;28;20029;-51
2021/12/06 02:00:59;;;;;;;25.33;13.65;;;;;;;3.78;76.25;100419.16;5045176;28;20042;-52
2021/12/06 02:03:24;;;;;;;25.90;14.70;;;;;;;3.79;76.58;100423.50;5041226;28;20028;-52
2021/12/06 02:05:50;;;;;;;27.95;14.88;;;;;;;3.78;76.33;100416.53;5040303;28;20155;-49
2021/12/06 02:08:16;;;;;;;29.20;16.48;;;;;;;3.77;76.32;100409.56;5027254;28;20485;-51
2021/12/06 02:10:41;;;;;;;28.65;16.65;;;;;;;3.72;76.39;100405.16;5041391;28;20021;-52
2021/12/06 02:13:08;;;;;;;26.50;15.25;;;;;;;3.78;76.27;100416.53;5044083;28;20020;-52
2021/12/06 02:15:45;;;;;;;27.65;15.95;;;;;;;3.78;76.27;100413.94;5045079;28;20052;-52
2021/12/06 02:18:26;;;;;;;29.35;16.33;;;;;;;3.78;76.39;100416.53;5046534;28;20035;-52
2021/12/06 02:21:01;;;;;;;28.10;15.43;;;;;;;3.78;76.44;100421.75;5041765;28;20651;-52
2021/12/06 02:23:27;;;;;;;27.42;15.70;;;;;;;3.76;76.57;100421.72;5039913;28;20425;-50
2021/12/06 02:25:52;;;;;;;30.15;15.85;;;;;;;3.78;76.62;100426.97;5045409;28;20493;-50
2021/12/06 02:28:18;;;;;;;27.52;17.00;;;;;;;3.77;76.44;100425.22;5041803;28;20082;-50
2021/12/06 02:30:43;;;;;;;29.45;16.98;;;;;;;3.76;76.30;100428.69;5039961;28;20080;-49
2021/12/06 02:33:10;;;;;;;32.15;17.60;;;;;;;3.79;76.56;100428.72;5044438;28;20028;-50
2021/12/06 02:35:35;;;;;;;28.95;16.90;;;;;;;3.77;76.33;100431.31;5042096;28;20178;-48
2021/12/06 02:38:06;;;;;;;31.85;17.13;;;;;;;3.78;76.13;100427.88;5040434;28;20529;-50
2021/12/06 02:40:33;;;;;;;28.10;15.32;;;;;;;3.78;75.84;100426.97;5042282;28;20025;-48
2021/12/06 02:43:00;;;;;;;30.58;16.33;;;;;;;3.76;75.93;100434.78;5026873;28;20032;-48
2021/12/06 02:45:27;;;;;;;27.08;16.35;;;;;;;3.78;76.55;100429.59;5042134;28;20036;-49
2021/12/06 02:47:54;;;;;;;29.90;16.20;;;;;;;3.77;75.90;100430.44;5022829;28;20751;-47
2021/12/06 02:50:27;;;;;;;28.98;16.20;;;;;;;3.78;76.50;100438.28;5043901;28;20400;-52
2021/12/06 02:52:54;;;;;;;33.72;17.42;;;;;;;3.76;76.35;100429.56;5043009;28;20021;-49
2021/12/06 02:55:39;;;;;;;29.92;17.15;;;;;;;3.77;76.28;100438.28;5040500;28;20436;-49
2021/12/06 02:58:15;;;;;;;32.08;17.83;;;;;;;3.77;75.87;100446.94;5025660;28;20078;-50
2021/12/06 03:00:46;;;;;;;35.65;18.58;;;;;;;3.78;76.39;100445.22;5039563;28;20021;-49
2021/12/06 03:03:12;;;;;;;33.47;17.98;;;;;;;3.76;76.15;100445.22;5046160;28;20021;-50
2021/12/06 03:05:38;;;;;;;31.25;17.88;;;;;;;3.76;75.76;100444.34;5042771;28;20032;-49
2021/12/06 03:08:04;;;;;;;33.05;18.30;;;;;;;3.76;75.83;100446.97;5044271;28;20033;-50
2021/12/06 03:10:32;;;;;;;34.83;18.70;;;;;;;3.77;76.35;100451.31;5042065;28;20037;-49
2021/12/06 03:12:57;;;;;;;36.65;18.67;;;;;;;3.76;76.30;100450.44;5041964;28;20374;-49
2021/12/06 03:15:23;;;;;;;33.08;17.92;;;;;;;3.77;76.52;100452.16;5041330;28;20029;-50
2021/12/06 03:17:48;;;;;;;31.35;17.75;;;;;;;3.76;76.18;100457.41;5042189;28;20100;-50
2021/12/06 03:20:14;;;;;;;35.60;18.92;;;;;;;3.75;76.77;100458.22;5041424;28;20696;-50
2021/12/06 03:22:41;;;;;;;35.75;18.33;;;;;;;3.76;76.35;100457.41;5024228;28;20040;-50
2021/12/06 03:25:08;;;;;;;33.85;19.27;;;;;;;3.74;76.53;100457.38;5040973;28;20665;-49
2021/12/06 03:27:33;;;;;;;38.30;19.48;;;;;;;3.75;76.62;100459.13;5038634;28;20033;-50
2021/12/06 03:29:59;;;;;;;34.75;18.58;;;;;;;3.75;75.93;100453.91;5042978;28;20399;-50
2021/12/06 03:32:24;;;;;;;30.25;19.27;;;;;;;3.75;75.93;100448.69;5045700;28;20524;-50
2021/12/06 03:34:49;;;;;;;34.15;19.05;;;;;;;3.76;76.41;100460.00;5042076;28;20456;-50
2021/12/06 03:37:15;;;;;;;36.28;20.05;;;;;;;3.75;75.96;100455.63;5044833;28;20100;-50
2021/12/06 03:39:44;;;;;;;35.22;18.50;;;;;;;3.74;76.11;100461.69;5040431;28;20025;-50
2021/12/06 03:42:11;;;;;;;37.25;20.35;;;;;;;3.72;75.74;100473.00;5021696;28;20057;-49
2021/12/06 03:44:37;;;;;;;33.55;19.55;;;;;;;3.75;75.98;100474.75;5023436;28;20425;-50
2021/12/06 03:47:07;;;;;;;33.17;19.17;;;;;;;3.74;76.03;100480.84;5024984;28;20571;-49
2021/12/06 03:49:33;;;;;;;42.47;20.70;;;;;;;3.75;76.21;100486.91;5039333;28;20405;-50
2021/12/06 03:51:58;;;;;;;32.80;18.02;;;;;;;3.74;76.20;100493.88;5044495;28;20029;-50
2021/12/06 03:54:26;;;;;;;36.63;20.42;;;;;;;3.74;75.96;100488.69;5023747;28;20090;-49
2021/12/06 03:56:52;;;;;;;39.17;19.65;;;;;;;3.74;76.15;100487.78;5036336;28;20025;-48
2021/12/06 03:59:17;;;;;;;34.38;18.85;;;;;;;3.75;76.32;100497.34;5039978;28;20032;-49
2021/12/06 04:01:43;;;;;;;38.22;19.70;;;;;;;3.72;76.15;100486.03;5037827;28;20492;-48
2021/12/06 04:04:08;;;;;;;38.55;21.00;;;;;;;3.74;76.55;100500.81;5044258;28;20098;-54
2021/12/06 04:06:34;;;;;;;35.30;19.52;;;;;;;3.74;76.62;100500.81;5037283;28;20025;-48
2021/12/06 04:09:00;;;;;;;40.60;20.25;;;;;;;3.74;76.25;100508.66;5039403;28;20385;-47
2021/12/06 04:11:25;;;;;;;34.80;20.27;;;;;;;3.73;76.17;100505.16;5044116;28;20032;-48
2021/12/06 04:13:51;;;;;;;38.35;20.10;;;;;;;3.73;76.20;100515.59;5039120;28;20111;-48
2021/12/06 04:16:17;;;;;;;36.78;20.45;;;;;;;3.72;76.01;100512.13;5022099;28;20493;-50
2021/12/06 04:18:43;;;;;;;39.03;20.58;;;;;;;3.71;75.95;100515.56;5044621;28;20099;-50
2021/12/06 04:21:09;;;;;;;36.47;19.25;;;;;;;3.72;76.03;100522.56;5041688;28;20040;-51
2021/12/06 04:23:35;;;;;;;38.58;21.20;;;;;;;3.72;76.17;100522.56;5023811;28;20616;-51
2021/12/06 04:26:01;;;;;;;38.92;20.45;;;;;;;3.73;76.26;100533.84;5031442;28;20534;-50
2021/12/06 04:28:29;;;;;;;38.72;20.73;;;;;;;3.74;75.92;100534.75;5038134;28;20024;-50
2021/12/06 04:30:55;;;;;;;36.35;19.42;;;;;;;3.72;76.21;100540.81;5038023;28;20030;-50
2021/12/06 04:33:20;;;;;;;38.08;21.23;;;;;;;3.72;76.42;100535.59;5042977;28;20021;-50
2021/12/06 04:35:46;;;;;;;39.67;21.13;;;;;;;3.71;76.18;100536.44;5043971;28;20021;-50
2021/12/06 04:38:12;;;;;;;37.13;21.50;;;;;;;3.72;76.09;100545.16;5043154;28;20108;-50
2021/12/06 04:40:37;;;;;;;37.17;20.55;;;;;;;3.73;75.93;100552.13;5030231;28;20036;-50
2021/12/06 04:43:03;;;;;;;35.25;20.55;;;;;;;3.71;76.50;100546.88;5041265;28;20040;-50
2021/12/06 04:45:29;;;;;;;38.88;21.15;;;;;;;3.71;75.69;100553.84;5044558;28;20060;-51
2021/12/06 04:47:55;;;;;;;34.55;20.98;;;;;;;3.71;75.87;100552.09;5044477;28;20033;-49
2021/12/06 04:50:24;;;;;;;34.63;20.20;;;;;;;3.71;75.72;100549.47;5027248;28;20547;-51
2021/12/06 04:52:50;;;;;;;30.55;18.38;;;;;;;3.71;76.26;100552.09;5041936;28;20079;-50
2021/12/06 04:55:25;;;;;;;36.90;19.88;;;;;;;3.71;75.90;100556.44;5043270;28;20025;-49
2021/12/06 04:57:51;;;;;;;35.25;20.15;;;;;;;3.70;75.75;100554.69;5044698;28;20033;-49
2021/12/06 05:00:32;;;;;;;37.90;20.52;;;;;;;3.72;76.05;100555.59;5045461;28;20035;-50
2021/12/06 05:02:59;;;;;;;32.30;19.52;;;;;;;3.71;76.24;100561.66;5047306;28;20021;-50
2021/12/06 05:05:29;;;;;;;32.10;19.92;;;;;;;3.69;75.79;100564.25;5044899;28;20087;-49
2021/12/06 05:08:05;;;;;;;36.85;20.23;;;;;;;3.71;76.01;100570.34;5041247;28;20033;-49
2021/12/06 05:10:30;;;;;;;38.03;21.10;;;;;;;3.70;75.57;100570.34;5036173;28;20021;-50
2021/12/06 05:12:56;;;;;;;32.95;18.85;;;;;;;3.69;75.66;100574.69;5045763;28;20021;-50
2021/12/06 05:15:21;;;;;;;36.50;19.60;;;;;;;3.70;75.86;100579.03;5041371;28;20389;-50
2021/12/06 05:17:46;;;;;;;32.55;18.98;;;;;;;3.67;76.17;100572.91;5042592;28;20025;-50
2021/12/06 05:20:13;;;;;;;31.67;18.35;;;;;;;3.70;75.95;100580.78;5043502;28;20049;-48
2021/12/06 05:22:39;;;;;;;34.15;19.88;;;;;;;3.68;75.97;100578.16;5048578;28;20029;-50
2021/12/06 05:25:06;;;;;;;34.35;20.13;;;;;;;3.69;76.24;100579.00;5046696;28;20054;-50
2021/12/06 05:27:31;;;;;;;35.17;19.92;;;;;;;3.70;75.88;100588.59;5041870;28;20032;-49
2021/12/06 05:30:01;;;;;;;34.50;20.83;;;;;;;3.69;75.78;100594.66;5048869;28;20037;-49
2021/12/06 05:32:29;;;;;;;31.90;19.80;;;;;;;3.67;75.98;100597.22;5048643;28;20112;-50
2021/12/06 05:35:01;;;;;;;32.40;19.35;;;;;;;3.69;75.87;100595.53;5024315;28;20024;-50
2021/12/06 05:37:27;;;;;;;35.25;19.30;;;;;;;3.69;75.75;100603.38;5042470;28;20025;-48
2021/12/06 05:39:53;;;;;;;31.90;18.25;;;;;;;3.68;75.82;100596.41;5042871;28;20559;-48
2021/12/06 05:42:19;;;;;;;34.75;19.88;;;;;;;3.68;75.76;100609.44;5041559;28;20477;-48
2021/12/06 05:44:45;;;;;;;28.50;18.80;;;;;;;3.69;75.95;100610.31;5085517;22;20040;-48
2021/12/06 05:47:11;;;;;;;29.23;18.92;;;;;;;3.67;75.86;100612.03;5082426;28;20106;-48
2021/12/06 05:49:37;;;;;;;33.10;19.88;;;;;;;3.68;75.87;100619.00;5083085;28;20127;-48
2021/12/06 05:52:02;;;;;;;31.52;18.30;;;;;;;3.68;75.98;100614.66;5080604;28;20035;-48
2021/12/06 05:54:28;;;;;;;29.77;18.77;;;;;;;3.67;76.20;100619.84;5078576;28;20020;-48
2021/12/06 05:56:54;;;;;;;33.58;20.10;;;;;;;3.67;76.04;100618.09;5080084;28;20020;-48
2021/12/06 05:59:24;;;;;;;29.08;17.95;;;;;;;3.67;75.85;100623.31;5080586;28;20104;-48
2021/12/06 06:01:52;;;;;;;29.23;18.90;;;;;;;3.66;75.76;100618.06;5067510;28;20050;-48
2021/12/06 06:04:18;;;;;;;30.90;17.67;;;;;;;3.65;75.99;100625.03;5084365;28;20028;-47
2021/12/06 06:06:45;;;;;;;26.55;17.48;;;;;;;3.66;75.89;100620.69;5061126;28;20036;-47
2021/12/06 06:09:10;;;;;;;30.52;19.20;;;;;;;3.66;75.80;100621.56;5080313;28;20024;-48
2021/12/06 06:11:35;;;;;;;27.92;19.15;;;;;;;3.66;75.44;100626.78;5080999;28;20024;-48
2021/12/06 06:14:05;;;;;;;29.83;18.77;;;;;;;3.65;76.19;100638.06;5079894;28;20028;-48
2021/12/06 06:16:35;;;;;;;26.55;18.17;;;;;;;3.65;75.70;100632.84;5083976;28;20111;-48
2021/12/06 06:19:00;;;;;;;26.08;17.95;;;;;;;3.65;76.07;100637.19;5076186;28;20042;-48
2021/12/06 06:21:34;;;;;;;28.60;18.88;;;;;;;3.65;75.78;100640.69;5077098;28;20016;-48
2021/12/06 06:24:00;;;;;;;31.58;18.65;;;;;;;3.65;75.49;100643.28;5081715;28;20123;-48
2021/12/06 06:26:25;;;;;;;29.80;18.10;;;;;;;3.64;75.92;100654.59;5062682;28;20420;-48
2021/12/06 06:28:50;;;;;;;32.22;19.52;;;;;;;3.64;76.01;100651.09;5078157;28;20089;-48
2021/12/06 06:34:38;;;;;;;32.85;19.58;;;;;;;3.63;76.25;100652.81;5082222;28;20050;-48
2021/12/06 06:37:03;;;;;;;31.90;18.40;;;;;;;3.65;75.89;100665.88;5078052;28;20488;-49
2021/12/06 06:39:29;;;;;;;33.40;19.35;;;;;;;3.63;75.74;100668.44;5078813;28;20099;-48
2021/12/06 06:42:03;;;;;;;30.85;19.27;;;;;;;3.64;76.00;100669.34;5079481;28;20032;-48
2021/12/06 06:44:29;;;;;;;33.05;20.08;;;;;;;3.63;75.65;100675.41;5078764;28;20028;-48
2021/12/06 06:46:54;;;;;;;30.23;18.60;;;;;;;3.63;76.04;100685.84;5078215;28;20076;-48
2021/12/06 06:49:20;;;;;;;30.67;20.25;;;;;;;3.64;76.03;100690.22;5081927;28;20028;-48
2021/12/06 06:51:46;;;;;;;31.50;18.95;;;;;;;3.64;76.06;100690.22;5079864;28;20523;-48
2021/12/06 06:54:12;;;;;;;33.05;20.05;;;;;;;3.62;75.63;100692.78;5085090;28;20537;-48
2021/12/06 06:56:38;;;;;;;30.50;19.15;;;;;;;3.62;75.86;100687.56;5076245;28;20107;-48
2021/12/06 06:59:04;;;;;;;30.30;19.35;;;;;;;3.64;75.77;100696.31;5079052;28;20090;-48
2021/12/06 07:01:30;;;;;;;30.92;18.52;;;;;;;3.62;75.78;100698.00;5077495;28;20020;-48
2021/12/06 07:03:55;;;;;;;35.65;19.80;;;;;;;3.63;75.51;100698.91;5081005;28;21265;-48
2021/12/06 07:06:22;;;;;;;30.45;19.52;;;;;;;3.61;75.94;100698.88;5079467;28;20027;-48
2021/12/06 07:08:48;;;;;;;30.40;18.65;;;;;;;3.63;76.38;100699.75;5079717;28;20032;-48
2021/12/06 07:11:13;;;;;;;32.70;19.65;;;;;;;3.60;76.05;100715.34;5083605;28;20883;-48
2021/12/06 07:13:39;;;;;;;30.98;19.08;;;;;;;3.60;75.93;100725.78;5076848;28;20107;-49
2021/12/06 07:16:06;;;;;;;31.45;19.67;;;;;;;3.62;75.59;100724.09;5061270;28;20054;-48
2021/12/06 07:18:32;;;;;;;31.55;19.70;;;;;;;3.61;75.84;100722.34;5078583;28;20031;-48
2021/12/06 07:20:57;;;;;;;33.17;21.00;;;;;;;3.61;75.56;100721.44;5079524;28;20021;-48
2021/12/06 07:23:22;;;;;;;30.80;18.70;;;;;;;3.61;75.70;100722.34;5078304;28;20032;-48
2021/12/06 07:25:47;;;;;;;32.03;19.63;;;;;;;3.60;75.86;100728.38;5082127;28;20381;-48
2021/12/06 07:28:13;;;;;;;32.92;20.23;;;;;;;3.59;75.63;100724.91;5081738;28;20038;-48
2021/12/06 07:30:38;;;;;;;33.88;19.23;;;;;;;3.58;75.56;100738.81;5076646;28;20039;-48
2021/12/06 07:33:04;;;;;;;36.38;21.00;;;;;;;3.58;76.36;100731.00;5082646;28;20025;-48
2021/12/06 07:35:31;;;;;;;32.10;20.10;;;;;;;3.59;75.66;100735.34;5063696;28;20052;-48
2021/12/06 07:37:57;;;;;;;36.28;20.52;;;;;;;3.59;75.57;100745.78;5078454;28;20108;-48
2021/12/06 07:40:22;;;;;;;34.22;19.95;;;;;;;3.59;75.81;100744.88;5080941;28;20118;-48
2021/12/06 07:42:48;;;;;;;33.38;18.58;;;;;;;3.59;75.96;100744.88;5077850;28;20028;-48
2021/12/06 07:45:14;;;;;;;36.97;20.38;;;;;;;3.59;75.65;100744.88;5080205;28;20364;-48
2021/12/06 07:47:39;;;;;;;32.35;19.92;;;;;;;3.58;75.31;100736.19;5080104;28;20038;-48
2021/12/06 07:50:09;;;;;;;34.17;20.00;;;;;;;3.58;76.00;100746.63;5061963;28;20032;-48
2021/12/06 07:52:35;;;;;;;32.10;18.98;;;;;;;3.58;75.58;100753.56;5062913;28;20074;-48
2021/12/06 07:55:02;;;;;;;35.58;18.90;;;;;;;3.57;75.72;100754.44;5078485;28;20495;-48
2021/12/06 07:57:28;;;;;;;33.72;19.77;;;;;;;3.59;75.86;100763.16;5084762;28;20376;-48
2021/12/06 07:59:53;;;;;;;32.10;19.95;;;;;;;3.58;75.69;100761.38;5077017;28;20041;-48
2021/12/06 08:02:18;;;;;;;34.53;19.95;;;;;;;3.58;76.11;100761.38;5083713;28;20114;-48
2021/12/06 08:04:47;;;;;;;34.17;19.73;;;;;;;3.59;75.81;100760.53;5078076;28;20056;-48
2021/12/06 08:07:13;;;;;;;36.33;20.58;;;;;;;3.57;75.82;100757.91;5079228;28;20020;-48
2021/12/06 08:09:38;;;;;;;36.03;21.15;;;;;;;3.56;75.71;100750.94;5078568;28;21521;-48
2021/12/06 08:12:04;;;;;;;39.00;20.83;;;;;;;3.56;75.75;100761.34;5082475;28;20032;-48
2021/12/06 08:14:29;;;;;;;35.85;20.27;;;;;;;3.56;76.28;100756.16;5079991;28;20052;-47
2021/12/06 08:16:54;;;;;;;33.38;19.75;;;;;;;3.55;75.59;100750.88;5077375;28;20027;-48
2021/12/06 08:19:20;;;;;;;37.17;19.98;;;;;;;3.57;75.62;100764.84;5077580;28;20025;-48
2021/12/06 08:21:45;;;;;;;36.28;20.58;;;;;;;3.55;75.85;100756.09;5076630;28;20397;-48
2021/12/06 08:24:10;;;;;;;37.75;21.30;;;;;;;3.55;75.65;100763.94;5083130;28;20012;-48
2021/12/06 08:26:39;;;;;;;33.45;19.65;;;;;;;3.55;76.11;100763.94;5081935;28;20085;-48
2021/12/06 08:29:06;;;;;;;34.15;20.42;;;;;;;3.56;75.72;100768.28;5082408;28;20028;-48
2021/12/06 08:31:37;;;;;;;34.70;20.13;;;;;;;3.56;75.38;100765.69;5062200;28;20400;-48
2021/12/06 08:34:02;;;;;;;35.43;19.37;;;;;;;3.56;75.77;100766.56;5079265;28;20482;-49
2021/12/06 08:36:28;;;;;;;37.47;19.90;;;;;;;3.56;75.90;100770.91;5079662;28;20028;-48
2021/12/06 08:38:54;;;;;;;37.33;21.83;;;;;;;3.55;75.82;100766.53;5080465;28;20032;-48
2021/12/06 08:41:23;;;;;;;32.50;19.55;;;;;;;3.53;75.54;100765.66;5077484;28;20017;-48
2021/12/06 08:43:49;;;;;;;37.22;20.83;;;;;;;3.55;76.07;100769.16;5058401;28;20051;-49
2021/12/06 08:46:19;;;;;;;35.58;21.30;;;;;;;3.54;76.01;100767.41;5080576;28;20028;-48
2021/12/06 08:48:45;;;;;;;36.50;19.42;;;;;;;3.54;75.66;100773.47;5058991;28;20028;-48
2021/12/06 08:51:19;;;;;;;37.13;21.08;;;;;;;3.55;75.92;100779.56;5076586;28;20047;-48
2021/12/06 08:53:46;;;;;;;34.75;20.13;;;;;;;3.54;75.95;100781.28;5080912;28;20024;-48
2021/12/06 08:56:13;;;;;;;37.58;21.63;;;;;;;3.54;75.73;100777.81;5076178;28;20025;-49
2021/12/06 08:58:39;;;;;;;35.10;20.60;;;;;;;3.54;75.70;100777.81;5080380;28;20028;-49
2021/12/06 09:01:05;;;;;;;30.25;18.90;;;;;;;3.53;75.76;100786.50;5076811;28;20172;-48
2021/12/06 09:06:53;;;;;;;;;;;;;;;3.52;75.90;100788.22;5078322;28;20731;-49
2021/12/06 09:09:21;;;;;;;32.75;19.55;;;;;;;3.52;75.83;100795.16;5075397;28;19963;-48
2021/12/06 09:11:47;;;;;;;36.22;20.92;;;;;;;3.51;75.81;100793.41;5083449;28;20032;-49
2021/12/06 09:14:14;;;;;;;31.48;19.50;;;;;;;3.52;75.83;100805.59;5076678;28;20024;-49
2021/12/06 09:16:40;;;;;;;34.80;19.65;;;;;;;3.52;75.86;100809.09;5063052;28;20032;-49
2021/12/06 09:19:07;;;;;;;33.97;19.35;;;;;;;3.52;75.71;100808.19;5078468;28;20035;-49
2021/12/06 09:21:36;;;;;;;38.25;20.20;;;;;;;3.50;75.65;100809.91;5081434;28;20035;-48
2021/12/06 09:24:05;;;;;;;33.47;19.83;;;;;;;3.52;75.66;100810.81;5082346;28;20116;-50
2021/12/06 09:26:30;;;;;;;35.33;18.38;;;;;;;3.50;75.34;100812.50;5064133;28;20046;-49
2021/12/06 09:28:56;;;;;;;32.63;19.67;;;;;;;3.51;75.59;100812.56;5087850;28;20051;-49
2021/12/06 09:31:21;;;;;;;32.08;20.30;;;;;;;3.52;75.46;100818.63;5085987;28;20034;-49
2021/12/06 09:33:47;;;;;;;36.17;21.20;;;;;;;3.51;75.67;100817.78;5082383;28;20024;-49
2021/12/06 09:36:13;;;;;;;35.80;21.30;;;;;;;3.46;75.74;100809.84;5081102;28;20036;-49
2021/12/06 09:38:40;;;;;;;28.85;18.23;;;;;;;3.51;75.81;100829.91;5080923;28;20034;-49
2021/12/06 09:41:28;;;;;;;33.83;19.60;;;;;;;3.51;75.85;100819.47;5084438;28;20020;-49
2021/12/06 09:43:56;;;;;;;33.47;20.40;;;;;;;3.50;75.95;100823.81;5080832;28;20089;-49
2021/12/06 09:46:22;;;;;;;32.05;19.33;;;;;;;3.50;75.38;100822.94;5076698;28;20052;-49
2021/12/06 09:48:47;;;;;;;32.03;19.45;;;;;;;3.50;75.81;100828.16;5079223;28;20086;-50
2021/12/06 09:51:25;;;;;;;31.60;19.15;;;;;;;3.49;75.70;100819.44;5084377;28;20048;-50
2021/12/06 09:53:51;;;;;;;34.38;19.85;;;;;;;3.50;75.81;100823.81;5061841;28;20056;-49
2021/12/06 09:56:27;;;;;;;29.38;19.85;;;;;;;3.49;75.91;100819.44;5080716;28;20020;-50
2021/12/06 09:58:55;;;;;;;33.50;18.60;;;;;;;3.49;75.53;100821.16;5067566;28;20035;-49
2021/12/06 10:01:24;;;;;;;28.58;18.13;;;;;;;3.50;75.86;100815.13;5063409;28;20032;-50
2021/12/06 10:03:53;;;;;;;32.00;18.95;;;;;;;3.49;75.83;100813.34;5078753;28;20385;-49
2021/12/06 10:06:19;;;;;;;32.58;18.48;;;;;;;3.48;75.89;100807.25;5082321;28;20098;-50
2021/12/06 10:08:46;;;;;;;31.27;19.50;;;;;;;3.50;76.08;100815.13;5060305;28;20464;-50
2021/12/06 10:11:13;;;;;;;32.72;19.88;;;;;;;3.50;75.40;100807.31;5079886;28;20027;-49
2021/12/06 10:13:39;;;;;;;32.55;20.45;;;;;;;3.49;75.58;100814.22;5078762;28;20032;-49
2021/12/06 10:16:05;;;;;;;31.58;18.63;;;;;;;3.49;75.18;100815.94;5078567;28;20411;-50
2021/12/06 10:18:30;;;;;;;29.88;18.60;;;;;;;3.47;76.04;100806.38;5079126;28;20479;-49
2021/12/06 10:20:56;;;;;;;31.23;20.08;;;;;;;3.46;75.60;100811.53;5076698;28;20472;-50
2021/12/06 10:23:21;;;;;;;33.38;20.65;;;;;;;3.46;75.49;100817.66;5060936;28;20395;-50
2021/12/06 10:25:50;;;;;;;33.65;18.85;;;;;;;3.47;75.84;100803.75;5083372;28;20402;-50
2021/12/06 10:28:17;;;;;;;29.90;18.27;;;;;;;3.47;75.43;100801.16;5077423;28;20364;-50
2021/12/06 10:30:51;;;;;;;30.15;18.25;;;;;;;3.47;75.98;100795.94;5083083;28;20104;-49
2021/12/06 10:33:21;;;;;;;31.70;19.48;;;;;;;3.46;75.58;100788.97;5080616;28;20036;-49
2021/12/06 10:35:50;;;;;;;30.15;18.25;;;;;;;3.47;76.00;100797.69;5059990;28;20476;-49
2021/12/06 10:38:21;;;;;;;33.15;18.80;;;;;;;3.46;75.86;100796.78;5081228;28;20093;-49
2021/12/06 10:40:47;;;;;;;31.00;19.90;;;;;;;3.47;75.54;100798.53;5082235;28;20494;-50
2021/12/06 10:43:13;;;;;;;29.92;19.40;;;;;;;3.46;75.60;100794.19;5083463;28;20032;-50
2021/12/06 10:45:52;;;;;;;29.13;18.48;;;;;;;3.45;75.92;100795.03;5060011;28;20400;-49
2021/12/06 10:48:30;;;;;;;28.23;17.60;;;;;;;3.49;76.12;100795.09;5077522;28;20063;-51
2021/12/06 10:51:00;;;;;;;29.73;18.85;;;;;;;3.46;75.67;100785.47;5058327;28;20082;-50
2021/12/06 10:53:44;;;;;;;32.30;20.02;;;;;;;3.48;75.80;100789.00;5060122;28;20025;-50
2021/12/06 10:56:20;;;;;;;29.60;17.88;;;;;;;3.46;75.71;100781.16;5079616;28;21202;-50
2021/12/06 10:58:51;;;;;;;28.02;18.73;;;;;;;3.45;75.73;100789.81;5076831;28;20426;-50
2021/12/06 11:01:19;;;;;;;31.75;18.42;;;;;;;3.45;76.00;100768.97;5062912;28;20114;-49
2021/12/06 11:03:47;;;;;;;31.80;18.73;;;;;;;3.45;75.48;100774.19;5080851;28;20291;-49
2021/12/06 11:06:20;;;;;;;30.75;19.17;;;;;;;3.45;75.46;100761.13;5059392;28;20468;-50
2021/12/06 11:08:50;;;;;;;27.48;18.13;;;;;;;3.44;75.95;100761.97;5077642;28;20563;-49
2021/12/06 11:11:20;;;;;;;31.52;19.20;;;;;;;3.45;75.47;100762.84;5073588;28;20021;-49
2021/12/06 11:13:51;;;;;;;29.90;18.67;;;;;;;3.45;76.04;100761.13;5059750;28;20451;-50
2021/12/06 11:16:22;;;;;;;29.77;19.65;;;;;;;3.45;75.43;100766.34;5071575;28;20038;-50
2021/12/06 11:18:51;;;;;;;31.58;19.33;;;;;;;3.45;75.56;100757.63;5079264;28;20032;-50
2021/12/06 11:21:39;;;;;;;33.65;19.75;;;;;;;3.46;75.71;100762.00;5077785;28;20020;-50
2021/12/06 11:24:12;;;;;;;31.13;20.20;;;;;;;3.43;75.93;100759.31;5075677;28;20029;-50
2021/12/06 11:27:14;;;;;;;32.10;19.90;;;;;;;3.45;75.52;100768.06;5075519;28;20593;-49
2021/12/06 11:29:41;;;;;;;32.50;20.65;;;;;;;3.44;75.80;100769.78;5078666;28;20044;-50
2021/12/06 11:32:09;;;;;;;32.95;19.88;;;;;;;3.43;75.54;100773.25;5078365;28;20102;-50
2021/12/06 11:34:43;;;;;;;31.13;19.73;;;;;;;3.41;75.89;100772.34;5081231;28;20020;-50
2021/12/06 11:37:17;;;;;;;32.80;20.80;;;;;;;3.44;76.18;100768.94;5076832;28;20107;-49
2021/12/06 11:39:46;;;;;;;31.30;19.98;;;;;;;3.43;75.98;100774.97;5080411;28;20021;-49